Time;durP1;ratioP1;P1;durP2;ratioP2;P2;SDS_P1;SDS_P2;PMS_P1;PMS_P2;Temp;Humidity;BMP_temperature;BMP_pressure;BME280_temperature;BME280_humidity;BME280_pressure;Samples;Min_cycle;Max_cycle;Signal;HPM_P1;HPM_P2
2021/11/02 00:01:29;;;;;;;47.73;15.00;;;;;;;;;;4990108;28;20041;-76
2021/11/02 00:03:55;;;;;;;29.77;9.93;;;;;;;;;;4990499;28;20033;-76
2021/11/02 00:06:21;;;;;;;35.87;10.60;;;;;;;;;;4990699;28;20034;-75
2021/11/02 00:08:47;;;;;;;32.03;10.07;;;;;;;;;;4989981;28;20057;-76
2021/11/02 00:11:13;;;;;;;29.73;10.13;;;;;;;;;;4991940;28;20026;-76
2021/11/02 00:13:41;;;;;;;27.23;8.27;;;;;;;;;;4990409;28;20030;-75
2021/11/02 00:16:09;;;;;;;26.13;9.33;;;;;;;;;;4991431;28;20036;-75
2021/11/02 00:18:39;;;;;;;28.10;8.90;;;;;;;;;;4991485;28;20430;-76
2021/11/02 00:21:05;;;;;;;26.10;8.03;;;;;;;;;;4990073;28;20022;-77
2021/11/02 00:23:36;;;;;;;19.90;8.20;;;;;;;;;;5006750;28;20512;-75
2021/11/02 00:26:07;;;;;;;28.20;10.37;;;;;;;;;;4990285;28;20018;-76
2021/11/02 00:28:32;;;;;;;25.43;9.57;;;;;;;;;;4986692;28;20041;-76
2021/11/02 00:30:58;;;;;;;29.20;9.20;;;;;;;;;;4985371;28;20038;-76
2021/11/02 00:33:24;;;;;;;22.73;8.03;;;;;;;;;;4989796;28;20124;-75
2021/11/02 00:35:50;;;;;;;29.83;8.80;;;;;;;;;;4989824;28;20495;-76
2021/11/02 00:38:15;;;;;;;26.47;8.53;;;;;;;;;;4990198;28;20058;-75
2021/11/02 00:40:43;;;;;;;27.07;8.70;;;;;;;;;;4991501;28;20089;-74
2021/11/02 00:43:10;;;;;;;30.60;9.53;;;;;;;;;;4988944;28;20030;-76
2021/11/02 00:45:36;;;;;;;21.97;7.53;;;;;;;;;;4990738;28;20022;-76
2021/11/02 00:48:07;;;;;;;25.13;8.10;;;;;;;;;;5005602;28;20030;-76
2021/11/02 00:50:34;;;;;;;22.25;8.02;;;;;;;;;;4990715;28;20027;-75
2021/11/02 00:53:00;;;;;;;24.70;7.23;;;;;;;;;;5005784;28;20117;-76
2021/11/02 00:55:26;;;;;;;23.10;6.83;;;;;;;;;;4990774;28;20105;-75
2021/11/02 00:57:51;;;;;;;26.90;8.27;;;;;;;;;;4990333;28;20073;-74
2021/11/02 01:00:19;;;;;;;26.03;7.73;;;;;;;;;;4988873;28;20083;-76
2021/11/02 01:02:44;;;;;;;26.03;9.03;;;;;;;;;;4990502;28;20109;-77
2021/11/02 01:05:12;;;;;;;32.23;9.60;;;;;;;;;;5005579;28;20121;-74
2021/11/02 01:07:38;;;;;;;26.63;9.63;;;;;;;;;;4990604;28;20026;-76
2021/11/02 01:10:05;;;;;;;32.77;10.83;;;;;;;;;;4990486;28;20089;-76
2021/11/02 01:12:31;;;;;;;16.03;6.70;;;;;;;;;;4989160;28;20490;-76
2021/11/02 01:14:57;;;;;;;24.50;7.50;;;;;;;;;;4988241;28;20060;-75
2021/11/02 01:17:22;;;;;;;20.97;7.30;;;;;;;;;;4990944;28;20105;-75
2021/11/02 01:19:48;;;;;;;21.77;6.57;;;;;;;;;;4990183;28;20471;-75
2021/11/02 01:22:13;;;;;;;30.57;9.17;;;;;;;;;;4988358;28;20111;-75
2021/11/02 01:24:39;;;;;;;32.90;8.40;;;;;;;;;;4990174;28;20494;-77
2021/11/02 01:27:04;;;;;;;26.40;8.60;;;;;;;;;;4990235;28;20034;-76
2021/11/02 01:29:30;;;;;;;19.57;6.67;;;;;;;;;;5001834;28;20030;-75
2021/11/02 01:31:55;;;;;;;11.80;4.43;;;;;;;;;;4970882;28;20030;-75
2021/11/02 01:34:21;;;;;;;13.13;3.83;;;;;;;;;;4970782;28;20046;-75
2021/11/02 01:36:48;;;;;;;15.33;5.33;;;;;;;;;;4976791;28;20501;-76
2021/11/02 01:39:14;;;;;;;15.13;4.37;;;;;;;;;;4988251;28;20037;-75
2021/11/02 01:41:40;;;;;;;14.03;4.60;;;;;;;;;;4990008;28;20034;-76
2021/11/02 01:44:07;;;;;;;9.97;3.83;;;;;;;;;;4989160;28;20026;-76
2021/11/02 01:46:35;;;;;;;11.23;3.97;;;;;;;;;;4990106;28;20053;-75
2021/11/02 01:49:03;;;;;;;8.63;4.20;;;;;;;;;;4989695;28;20068;-75
2021/11/02 01:51:30;;;;;;;11.03;4.10;;;;;;;;;;4990049;28;20108;-76
2021/11/02 01:53:56;;;;;;;10.43;3.30;;;;;;;;;;4988368;28;20033;-76
2021/11/02 01:56:22;;;;;;;16.77;5.27;;;;;;;;;;4989643;28;20117;-76
2021/11/02 01:58:54;;;;;;;10.63;3.43;;;;;;;;;;4989885;28;20026;-76
2021/11/02 02:01:25;;;;;;;11.35;3.95;;;;;;;;;;5000127;28;20030;-74
2021/11/02 02:04:06;;;;;;;9.48;3.30;;;;;;;;;;4989205;28;20027;-76
2021/11/02 02:07:04;;;;;;;9.02;3.00;;;;;;;;;;5005015;28;20034;-74
2021/11/02 02:10:02;;;;;;;15.57;3.90;;;;;;;;;;4994251;28;20026;-77
2021/11/02 02:12:47;;;;;;;12.30;3.43;;;;;;;;;;4985833;28;20545;-76
2021/11/02 02:15:29;;;;;;;14.97;5.07;;;;;;;;;;5002813;28;20042;-78
2021/11/02 02:18:03;;;;;;;15.30;4.65;;;;;;;;;;4989441;28;20461;-74
2021/11/02 02:20:37;;;;;;;14.83;4.33;;;;;;;;;;4989880;28;20026;-76
2021/11/02 02:23:22;;;;;;;17.00;5.13;;;;;;;;;;4988091;28;20069;-77
2021/11/02 02:26:21;;;;;;;15.60;4.73;;;;;;;;;;4989924;28;20026;-77
2021/11/02 02:28:52;;;;;;;14.03;4.43;;;;;;;;;;4989603;28;20036;-75
2021/11/02 02:31:20;;;;;;;16.80;4.40;;;;;;;;;;4989121;28;20030;-75
2021/11/02 02:33:48;;;;;;;11.37;4.63;;;;;;;;;;4989658;28;20044;-76
2021/11/02 02:36:15;;;;;;;11.03;4.47;;;;;;;;;;5008199;28;20486;-76
2021/11/02 02:38:44;;;;;;;14.37;4.13;;;;;;;;;;5008544;28;20026;-76
2021/11/02 02:41:11;;;;;;;19.90;5.13;;;;;;;;;;4993077;28;20076;-76
2021/11/02 02:43:41;;;;;;;13.30;3.90;;;;;;;;;;4988510;28;20027;-77
2021/11/02 02:46:09;;;;;;;14.47;4.73;;;;;;;;;;4987986;28;20490;-76
2021/11/02 02:48:35;;;;;;;9.83;4.17;;;;;;;;;;4986129;28;20076;-78
2021/11/02 02:51:03;;;;;;;12.23;4.70;;;;;;;;;;5007889;28;20033;-75
2021/11/02 02:53:30;;;;;;;9.63;3.73;;;;;;;;;;5007924;28;20025;-76
2021/11/02 02:56:00;;;;;;;13.27;4.17;;;;;;;;;;5007618;28;20193;-75
2021/11/02 02:58:33;;;;;;;9.43;3.63;;;;;;;;;;4992933;28;20407;-76
2021/11/02 03:00:59;;;;;;;18.87;3.93;;;;;;;;;;5003578;28;20121;-76
2021/11/02 03:03:25;;;;;;;10.03;4.23;;;;;;;;;;4981034;28;20121;-75
2021/11/02 03:05:53;;;;;;;11.60;4.57;;;;;;;;;;4991853;28;20158;-76
2021/11/02 03:08:20;;;;;;;11.53;4.67;;;;;;;;;;4992534;28;20062;-75
2021/11/02 03:10:47;;;;;;;17.77;7.17;;;;;;;;;;5007727;28;20038;-75
2021/11/02 03:13:14;;;;;;;17.70;4.40;;;;;;;;;;5007871;28;20069;-75
2021/11/02 03:43:43;;;;;;;11.60;3.67;;;;;;;;;;4991647;28;20041;-75
2021/11/02 03:49:03;;;;;;;10.33;2.80;;;;;;;;;;4992063;28;20081;-74
2021/11/02 03:57:11;;;;;;;18.17;3.70;;;;;;;;;;4992347;28;20040;-76
2021/11/02 04:25:14;;;;;;;31.87;12.67;;;;;;;;;;4993020;28;20063;-75
2021/11/02 05:54:18;;;;;;;33.00;13.90;;;;;;;;;;4999453;28;20030;-76
2021/11/02 06:07:24;;;;;;;33.13;13.97;;;;;;;;;;4990603;28;20030;-77
2021/11/02 06:09:58;;;;;;;33.80;13.03;;;;;;;;;;4993271;28;20027;-78
2021/11/02 06:29:23;;;;;;;36.00;13.03;;;;;;;;;;4993100;28;20145;-78
2021/11/02 06:31:58;;;;;;;37.80;14.30;;;;;;;;;;4994098;28;20034;-79
2021/11/02 07:18:46;;;;;;;41.97;15.47;;;;;;;;;;4984351;28;20053;-77
2021/11/02 07:21:26;;;;;;;39.67;15.97;;;;;;;;;;5004131;28;20033;-76
2021/11/02 07:24:04;;;;;;;34.63;12.30;;;;;;;;;;4988656;28;20490;-81
2021/11/02 07:27:00;;;;;;;34.50;12.87;;;;;;;;;;4982090;28;20080;-76
2021/11/02 08:46:57;;;;;;;31.77;12.53;;;;;;;;;;5017610;28;20087;-73
2021/11/02 08:49:23;;;;;;;36.47;14.57;;;;;;;;;;5035165;28;20035;-74
2021/11/02 08:51:57;;;;;;;22.53;11.53;;;;;;;;;;5019163;28;20577;-74
2021/11/02 08:54:24;;;;;;;31.47;10.80;;;;;;;;;;5036665;28;20025;-73
2021/11/02 08:56:52;;;;;;;22.90;12.70;;;;;;;;;;5019988;28;20085;-74
2021/11/02 08:59:18;;;;;;;22.20;11.27;;;;;;;;;;5019310;28;20036;-72
2021/11/02 09:01:53;;;;;;;28.17;12.20;;;;;;;;;;5014130;28;20037;-73
2021/11/02 09:04:20;;;;;;;25.43;10.97;;;;;;;;;;5018128;28;20041;-74
2021/11/02 09:06:50;;;;;;;26.57;10.33;;;;;;;;;;5020973;28;20064;-73
2021/11/02 09:09:19;;;;;;;22.40;11.30;;;;;;;;;;5018856;28;20050;-75
2021/11/02 09:11:48;;;;;;;23.67;11.33;;;;;;;;;;5035920;28;20095;-73
2021/11/02 09:14:17;;;;;;;26.73;10.50;;;;;;;;;;5020496;28;20025;-73
2021/11/02 09:16:48;;;;;;;28.83;11.30;;;;;;;;;;5036847;28;20048;-73
2021/11/02 09:19:14;;;;;;;25.73;11.20;;;;;;;;;;5019805;28;20036;-74
2021/11/02 09:21:43;;;;;;;24.63;9.87;;;;;;;;;;5020129;28;20457;-72
2021/11/02 09:24:08;;;;;;;28.60;10.77;;;;;;;;;;5021611;28;20033;-73
2021/11/02 09:26:42;;;;;;;17.43;9.73;;;;;;;;;;5021884;28;20708;-73
2021/11/02 09:29:10;;;;;;;22.90;12.33;;;;;;;;;;5024703;28;20059;-74
2021/11/02 09:31:40;;;;;;;24.97;13.37;;;;;;;;;;5018723;28;20532;-73
2021/11/02 09:34:06;;;;;;;26.83;11.33;;;;;;;;;;5023627;28;20053;-72
2021/11/02 09:36:45;;;;;;;18.07;10.73;;;;;;;;;;5021891;28;20033;-74
2021/11/02 09:39:13;;;;;;;42.67;15.80;;;;;;;;;;5022721;28;20036;-74
2021/11/02 09:42:26;;;;;;;21.97;10.97;;;;;;;;;;5022376;28;20044;-73
2021/11/02 09:45:31;;;;;;;15.63;7.23;;;;;;;;;;5011413;28;20574;-73
2021/11/02 09:48:11;;;;;;;18.43;7.67;;;;;;;;;;4986216;28;20550;-74
2021/11/02 09:50:49;;;;;;;22.47;14.53;;;;;;;;;;5037334;28;20072;-73
2021/11/02 09:53:27;;;;;;;12.77;7.40;;;;;;;;;;5026981;28;20045;-73
2021/11/02 09:56:23;;;;;;;37.40;12.60;;;;;;;;;;5018756;28;20029;-74
2021/11/02 09:59:22;;;;;;;16.77;7.83;;;;;;;;;;5017772;28;20254;-73
2021/11/02 10:01:49;;;;;;;18.93;7.80;;;;;;;;;;5014584;28;20149;-73
2021/11/02 10:04:39;;;;;;;18.23;10.55;;;;;;;;;;5015596;28;20053;-73
2021/11/02 10:07:16;;;;;;;15.80;8.60;;;;;;;;;;5034706;28;20037;-74
2021/11/02 10:10:15;;;;;;;14.20;8.27;;;;;;;;;;5013886;28;20044;-74
2021/11/02 10:12:41;;;;;;;20.42;8.95;;;;;;;;;;5032430;28;20449;-73
2021/11/02 10:15:20;;;;;;;19.15;8.82;;;;;;;;;;5016100;28;20033;-73
2021/11/02 10:17:55;;;;;;;17.25;7.60;;;;;;;;;;5034979;28;20120;-75
2021/11/02 10:20:48;;;;;;;26.70;11.60;;;;;;;;;;5017333;28;20113;-74
2021/11/02 10:23:27;;;;;;;32.03;10.63;;;;;;;;;;5017542;28;20048;-74
2021/11/02 10:26:17;;;;;;;14.15;7.47;;;;;;;;;;5015024;28;20033;-72
2021/11/02 10:29:14;;;;;;;20.60;7.45;;;;;;;;;;5018166;28;20056;-75
2021/11/02 10:32:06;;;;;;;11.65;7.22;;;;;;;;;;5014866;28;20029;-74
2021/11/02 10:34:42;;;;;;;62.85;21.27;;;;;;;;;;5030583;28;20065;-74
2021/11/02 10:37:08;;;;;;;42.28;16.85;;;;;;;;;;5019628;28;20057;-73
2021/11/02 10:40:02;;;;;;;18.00;7.72;;;;;;;;;;5033385;28;20072;-74
2021/11/02 10:42:59;;;;;;;29.33;16.67;;;;;;;;;;5016172;28;20124;-72
2021/11/02 10:45:30;;;;;;;20.30;7.93;;;;;;;;;;4997500;28;20135;-74
2021/11/02 10:48:05;;;;;;;15.68;7.07;;;;;;;;;;5037245;28;20040;-73
2021/11/02 10:50:37;;;;;;;19.73;6.55;;;;;;;;;;5019032;28;20680;-75
2021/11/02 10:53:05;;;;;;;15.55;6.70;;;;;;;;;;5014658;28;20059;-74
2021/11/02 10:55:49;;;;;;;20.20;8.60;;;;;;;;;;5018557;28;20090;-74
2021/11/02 10:58:35;;;;;;;30.13;10.57;;;;;;;;;;5038496;28;20064;-74
2021/11/02 11:01:03;;;;;;;12.15;6.60;;;;;;;;;;5030681;28;20033;-74
2021/11/02 11:03:30;;;;;;;27.98;9.57;;;;;;;;;;5013604;28;20552;-74
2021/11/02 11:06:02;;;;;;;17.17;8.15;;;;;;;;;;5038752;28;20034;-74
2021/11/02 11:08:31;;;;;;;15.35;6.43;;;;;;;;;;5017604;28;20033;-75
2021/11/02 11:10:59;;;;;;;16.10;7.13;;;;;;;;;;5018442;28;20034;-75
2021/11/02 11:13:36;;;;;;;15.45;6.03;;;;;;;;;;5038464;28;20929;-73
2021/11/02 11:16:07;;;;;;;13.38;6.78;;;;;;;;;;5021140;28;20040;-73
2021/11/02 11:18:50;;;;;;;13.17;7.27;;;;;;;;;;5038581;28;20463;-73
2021/11/02 11:21:18;;;;;;;15.52;7.93;;;;;;;;;;5034963;28;20646;-74
2021/11/02 11:23:49;;;;;;;14.05;8.63;;;;;;;;;;5036889;28;20718;-73
2021/11/02 11:26:15;;;;;;;16.83;7.80;;;;;;;;;;5024443;28;20086;-74
2021/11/02 11:28:43;;;;;;;17.67;7.18;;;;;;;;;;5022050;28;20047;-74
2021/11/02 11:31:08;;;;;;;11.32;6.80;;;;;;;;;;5034032;28;20504;-73
2021/11/02 11:33:34;;;;;;;23.92;6.53;;;;;;;;;;5036548;28;20054;-74
2021/11/02 11:36:05;;;;;;;23.38;8.48;;;;;;;;;;5020283;28;20064;-73
2021/11/02 11:38:40;;;;;;;23.58;10.27;;;;;;;;;;5040983;28;20483;-74
2021/11/02 11:41:09;;;;;;;27.20;11.85;;;;;;;;;;5035615;28;20061;-72
2021/11/02 11:43:35;;;;;;;22.85;11.82;;;;;;;;;;5027057;28;20536;-73
2021/11/02 11:46:03;;;;;;;21.88;9.57;;;;;;;;;;5015637;28;20038;-73
2021/11/02 11:48:31;;;;;;;17.05;6.28;;;;;;;;;;5037249;28;20172;-73
2021/11/02 11:51:00;;;;;;;18.70;6.07;;;;;;;;;;5019198;28;20044;-74
2021/11/02 11:53:27;;;;;;;12.30;5.30;;;;;;;;;;5015004;28;20791;-76
2021/11/02 11:56:15;;;;;;;12.23;5.75;;;;;;;;;;5020493;28;20120;-72
2021/11/02 11:58:54;;;;;;;19.90;6.75;;;;;;;;;;5023600;28;20033;-73
2021/11/02 12:01:57;;;;;;;13.75;6.30;;;;;;;;;;5026349;28;20018;-73
2021/11/02 12:04:33;;;;;;;17.10;10.93;;;;;;;;;;5016605;28;20486;-73
2021/11/02 12:07:23;;;;;;;8.20;4.00;;;;;;;;;;5018051;28;20064;-73
2021/11/02 12:09:49;;;;;;;10.40;4.07;;;;;;;;;;5024316;28;20036;-74
2021/11/02 12:12:15;;;;;;;10.82;4.70;;;;;;;;;;5039548;28;20099;-74
2021/11/02 12:14:49;;;;;;;8.55;4.15;;;;;;;;;;5024310;28;20034;-74
2021/11/02 12:17:17;;;;;;;8.57;4.60;;;;;;;;;;5014313;28;20029;-74
2021/11/02 12:20:09;;;;;;;12.25;4.50;;;;;;;;;;5030468;28;20086;-74
2021/11/02 12:22:46;;;;;;;8.60;4.35;;;;;;;;;;5010986;28;20602;-74
2021/11/02 12:25:18;;;;;;;10.50;4.07;;;;;;;;;;5029382;28;20052;-73
2021/11/02 12:27:44;;;;;;;;;;;;;;;;;;5028096;28;20059;-74
2021/11/02 12:30:11;;;;;;;13.40;4.40;;;;;;;;;;5020153;28;19956;-73
2021/11/02 12:32:45;;;;;;;8.23;3.53;;;;;;;;;;5019714;28;20029;-73
2021/11/02 12:35:14;;;;;;;8.35;3.88;;;;;;;;;;5027000;28;20072;-73
2021/11/02 12:37:55;;;;;;;18.67;7.40;;;;;;;;;;5019523;28;20026;-73
2021/11/02 12:40:26;;;;;;;5.88;3.92;;;;;;;;;;5029315;28;20482;-74
2021/11/02 12:42:53;;;;;;;7.75;3.63;;;;;;;;;;5013198;28;20026;-74
2021/11/02 12:45:20;;;;;;;9.73;3.88;;;;;;;;;;5012724;28;20068;-74
2021/11/02 12:47:48;;;;;;;5.70;3.92;;;;;;;;;;5019780;28;20135;-74
2021/11/02 12:50:17;;;;;;;4.97;3.42;;;;;;;;;;5038357;28;20033;-73
2021/11/02 12:52:45;;;;;;;6.68;4.18;;;;;;;;;;5023912;28;20030;-73
2021/11/02 12:55:19;;;;;;;6.90;3.47;;;;;;;;;;5012507;28;20029;-73
2021/11/02 12:57:53;;;;;;;8.32;3.00;;;;;;;;;;5021987;28;20017;-73
2021/11/02 13:00:26;;;;;;;11.50;3.65;;;;;;;;;;5025507;28;20112;-73
2021/11/02 13:02:59;;;;;;;15.55;4.57;;;;;;;;;;5025299;28;20140;-74
2021/11/02 13:05:26;;;;;;;10.98;3.45;;;;;;;;;;5024195;28;20101;-73
2021/11/02 13:08:04;;;;;;;10.05;4.68;;;;;;;;;;5019607;28;20500;-74
2021/11/02 13:10:32;;;;;;;20.40;5.85;;;;;;;;;;5008290;28;20642;-73
2021/11/02 13:13:07;;;;;;;10.25;4.15;;;;;;;;;;5021415;28;20030;-73
2021/11/02 13:15:55;;;;;;;7.50;3.33;;;;;;;;;;5023500;28;20025;-74
2021/11/02 13:18:34;;;;;;;8.95;3.92;;;;;;;;;;5030914;28;20116;-73
2021/11/02 13:21:26;;;;;;;7.93;3.40;;;;;;;;;;5025040;28;20034;-73
2021/11/02 13:23:59;;;;;;;17.30;3.90;;;;;;;;;;5014933;28;20064;-72
2021/11/02 13:26:26;;;;;;;10.40;3.65;;;;;;;;;;5015332;28;20125;-74
2021/11/02 13:28:54;;;;;;;11.60;3.42;;;;;;;;;;5013695;28;20448;-74
2021/11/02 13:31:34;;;;;;;6.80;3.22;;;;;;;;;;5023106;28;20021;-73
2021/11/02 13:34:10;;;;;;;6.85;3.30;;;;;;;;;;5023295;28;20049;-74
2021/11/02 13:36:36;;;;;;;13.48;3.40;;;;;;;;;;5028445;28;20037;-74
2021/11/02 13:39:20;;;;;;;10.13;3.80;;;;;;;;;;5046706;28;20033;-73
2021/11/02 13:41:48;;;;;;;13.27;4.35;;;;;;;;;;5027396;28;20071;-73
2021/11/02 13:44:15;;;;;;;8.75;3.75;;;;;;;;;;5019156;28;20024;-72
2021/11/02 13:46:51;;;;;;;6.97;2.85;;;;;;;;;;5027071;28;20075;-73
2021/11/02 13:49:19;;;;;;;14.88;3.70;;;;;;;;;;5023071;28;20090;-74
2021/11/02 13:51:45;;;;;;;6.80;3.53;;;;;;;;;;5026466;28;20026;-76
2021/11/02 13:54:11;;;;;;;12.35;2.78;;;;;;;;;;5019707;28;20032;-74
2021/11/02 13:56:43;;;;;;;7.20;2.53;;;;;;;;;;5012336;28;20030;-74
2021/11/02 13:59:10;;;;;;;5.97;4.13;;;;;;;;;;5019744;28;20021;-73
2021/11/02 14:01:40;;;;;;;10.32;6.53;;;;;;;;;;5016532;28;20071;-73
2021/11/02 14:04:28;;;;;;;8.73;2.67;;;;;;;;;;5014555;28;20096;-73
2021/11/02 14:06:59;;;;;;;5.57;3.53;;;;;;;;;;5018853;28;20275;-74
2021/11/02 14:09:27;;;;;;;5.97;2.85;;;;;;;;;;5018968;28;20029;-74
2021/11/02 14:11:55;;;;;;;14.20;4.13;;;;;;;;;;5017343;28;20108;-75
2021/11/02 14:14:38;;;;;;;9.68;3.17;;;;;;;;;;5018902;28;20032;-75
2021/11/02 14:17:23;;;;;;;8.50;2.97;;;;;;;;;;5022207;28;20056;-75
2021/11/02 14:19:49;;;;;;;6.93;3.92;;;;;;;;;;5020994;28;20516;-75
2021/11/02 14:22:43;;;;;;;4.55;2.55;;;;;;;;;;5018139;28;20025;-74
2021/11/02 14:25:19;;;;;;;5.35;3.22;;;;;;;;;;5024912;28;20034;-72
2021/11/02 14:27:48;;;;;;;12.55;3.17;;;;;;;;;;5026154;28;20068;-74
2021/11/02 14:30:31;;;;;;;15.32;3.70;;;;;;;;;;5022762;28;21753;-75
2021/11/02 14:33:01;;;;;;;5.88;3.10;;;;;;;;;;5044907;28;20061;-75
2021/11/02 14:35:44;;;;;;;5.72;3.50;;;;;;;;;;5030032;28;20483;-74
2021/11/02 14:38:13;;;;;;;11.77;3.42;;;;;;;;;;5031780;28;20033;-75
2021/11/02 14:40:41;;;;;;;13.98;4.75;;;;;;;;;;5045143;28;20028;-74
2021/11/02 14:43:12;;;;;;;10.85;4.40;;;;;;;;;;5033335;28;20091;-75
2021/11/02 14:45:42;;;;;;;9.00;3.85;;;;;;;;;;5032231;28;20025;-72
2021/11/02 14:48:29;;;;;;;7.90;3.92;;;;;;;;;;5021979;28;20670;-73
2021/11/02 14:51:04;;;;;;;14.40;4.90;;;;;;;;;;5024307;28;20038;-73
2021/11/02 14:53:37;;;;;;;10.00;3.92;;;;;;;;;;5030046;28;20021;-74
2021/11/02 14:56:04;;;;;;;9.77;4.85;;;;;;;;;;5016376;28;20645;-74
2021/11/02 14:58:39;;;;;;;13.20;4.28;;;;;;;;;;5026888;28;20029;-74
2021/11/02 15:01:48;;;;;;;14.73;5.13;;;;;;;;;;5020985;28;20036;-74
2021/11/02 15:04:18;;;;;;;13.30;4.80;;;;;;;;;;5036508;28;20514;-72
2021/11/02 15:06:47;;;;;;;15.30;5.50;;;;;;;;;;5017623;28;20104;-74
2021/11/02 15:09:18;;;;;;;19.45;6.43;;;;;;;;;;5026931;28;20138;-73
2021/11/02 15:11:48;;;;;;;14.93;4.65;;;;;;;;;;5024386;28;20056;-74
2021/11/02 15:14:20;;;;;;;13.32;5.15;;;;;;;;;;5027301;28;20140;-74
2021/11/02 15:17:02;;;;;;;14.13;5.50;;;;;;;;;;5034218;28;20080;-74
2021/11/02 15:19:30;;;;;;;12.82;5.38;;;;;;;;;;5029490;28;20036;-73
2021/11/02 15:22:05;;;;;;;13.40;5.30;;;;;;;;;;5023198;28;20045;-73
2021/11/02 15:24:40;;;;;;;17.95;5.60;;;;;;;;;;5024901;28;20037;-73
2021/11/02 15:27:30;;;;;;;10.27;4.60;;;;;;;;;;5031555;28;20040;-74
2021/11/02 15:30:12;;;;;;;12.07;5.45;;;;;;;;;;5025163;28;20481;-73
2021/11/02 15:32:39;;;;;;;7.55;4.68;;;;;;;;;;5013686;28;20044;-75
2021/11/02 15:35:08;;;;;;;7.20;4.38;;;;;;;;;;5026404;28;20049;-73
2021/11/02 15:37:37;;;;;;;8.90;3.83;;;;;;;;;;5040380;28;20028;-74
2021/11/02 15:40:08;;;;;;;6.80;4.40;;;;;;;;;;5021763;28;20430;-73
2021/11/02 15:42:41;;;;;;;15.07;5.85;;;;;;;;;;5024306;28;20105;-74
2021/11/02 15:45:12;;;;;;;7.07;4.45;;;;;;;;;;5045209;28;20080;-74
2021/11/02 15:47:50;;;;;;;15.55;4.15;;;;;;;;;;5038569;28;20394;-73
2021/11/02 15:50:22;;;;;;;7.60;3.90;;;;;;;;;;5028032;28;20448;-73
2021/11/02 15:52:47;;;;;;;;;;;;;;;;;;5020227;28;20052;-73
2021/11/02 15:55:20;;;;;;;8.67;4.97;;;;;;;;;;5024101;28;20400;-73
2021/11/02 15:57:54;;;;;;;6.23;2.93;;;;;;;;;;5026394;28;20474;-74
2021/11/02 16:00:32;;;;;;;7.38;2.38;;;;;;;;;;5043717;28;20853;-75
2021/11/02 16:02:58;;;;;;;6.87;2.77;;;;;;;;;;5011297;28;20034;-74
2021/11/02 16:05:26;;;;;;;3.65;2.35;;;;;;;;;;5023026;28;20033;-72
2021/11/02 16:07:56;;;;;;;11.73;2.63;;;;;;;;;;5023177;28;20027;-74
2021/11/02 16:10:26;;;;;;;6.30;3.30;;;;;;;;;;5028090;28;20029;-74
2021/11/02 16:12:53;;;;;;;22.00;3.97;;;;;;;;;;5042981;28;20615;-74
2021/11/02 16:15:22;;;;;;;54.87;5.90;;;;;;;;;;5028830;28;20040;-75
2021/11/02 16:17:53;;;;;;;7.53;3.60;;;;;;;;;;5023782;28;20101;-74
2021/11/02 16:20:37;;;;;;;24.70;10.25;;;;;;;;;;5029839;28;20104;-74
2021/11/02 16:23:09;;;;;;;15.65;4.05;;;;;;;;;;5018941;28;20060;-73
2021/11/02 16:25:39;;;;;;;17.87;4.87;;;;;;;;;;5027757;28;20041;-74
2021/11/02 16:28:30;;;;;;;17.47;4.83;;;;;;;;;;5027262;28;20025;-74
2021/11/02 16:31:05;;;;;;;5.43;4.47;;;;;;;;;;5020591;28;20070;-72
2021/11/02 16:33:40;;;;;;;63.67;25.40;;;;;;;;;;5026067;28;20513;-72
2021/11/02 16:36:24;;;;;;;76.35;35.70;;;;;;;;;;5023047;28;20033;-72
2021/11/02 16:38:52;;;;;;;25.92;9.73;;;;;;;;;;5009315;28;20030;-72
2021/11/02 16:41:23;;;;;;;10.47;5.97;;;;;;;;;;5031415;28;20509;-72
2021/11/02 16:44:06;;;;;;;15.87;6.87;;;;;;;;;;5023274;28;20029;-72
2021/11/02 16:46:39;;;;;;;17.57;6.33;;;;;;;;;;5027463;28;20025;-71
2021/11/02 16:49:12;;;;;;;10.60;5.77;;;;;;;;;;5017850;28;20033;-72
2021/11/02 16:51:53;;;;;;;12.93;5.30;;;;;;;;;;5008412;28;20048;-73
2021/11/02 16:54:22;;;;;;;33.87;7.10;;;;;;;;;;5022950;28;20563;-75
2021/11/02 16:57:00;;;;;;;17.20;5.67;;;;;;;;;;5016201;28;20076;-72
2021/11/02 16:59:38;;;;;;;20.87;8.27;;;;;;;;;;5024699;28;20115;-72
2021/11/02 17:02:14;;;;;;;42.40;8.20;;;;;;;;;;5012030;28;20045;-75
2021/11/02 17:04:42;;;;;;;47.17;12.80;;;;;;;;;;5010044;28;20028;-72
2021/11/02 17:07:11;;;;;;;26.03;11.97;;;;;;;;;;5024061;28;20026;-71
2021/11/02 17:09:39;;;;;;;25.27;6.33;;;;;;;;;;5009662;28;20489;-73
2021/11/02 17:12:09;;;;;;;8.97;4.40;;;;;;;;;;5017825;28;20109;-72
2021/11/02 17:14:41;;;;;;;7.07;4.13;;;;;;;;;;5022737;28;20021;-73
2021/11/02 17:17:09;;;;;;;;;;;;;;;;;;5011401;28;20026;-73
2021/11/02 17:19:43;;;;;;;11.10;4.17;;;;;;;;;;5038787;28;20424;-72
2021/11/02 17:22:10;;;;;;;11.27;3.93;;;;;;;;;;5013403;28;20030;-73
2021/11/02 17:24:36;;;;;;;17.03;5.17;;;;;;;;;;5008017;28;20034;-73
2021/11/02 17:27:01;;;;;;;13.27;5.47;;;;;;;;;;5007883;28;20026;-72
2021/11/02 17:29:28;;;;;;;61.47;27.90;;;;;;;;;;5007154;28;20584;-72
2021/11/02 17:31:55;;;;;;;35.07;12.90;;;;;;;;;;5011917;28;20387;-72
2021/11/02 17:34:22;;;;;;;16.77;5.60;;;;;;;;;;5009557;28;20042;-72
2021/11/02 17:37:07;;;;;;;14.40;5.23;;;;;;;;;;5008581;28;20033;-71
2021/11/02 17:39:35;;;;;;;11.60;5.73;;;;;;;;;;5009287;28;20057;-72
2021/11/02 17:42:03;;;;;;;13.47;5.20;;;;;;;;;;5009905;28;20076;-73
2021/11/02 17:44:29;;;;;;;18.20;6.93;;;;;;;;;;5023875;28;20031;-72
2021/11/02 17:46:55;;;;;;;16.90;6.60;;;;;;;;;;5021200;28;20109;-71
2021/11/02 17:49:21;;;;;;;13.83;5.27;;;;;;;;;;5007796;28;20087;-72
2021/11/02 17:51:47;;;;;;;13.07;6.43;;;;;;;;;;5018922;28;20021;-71
